Terminal Aerodrome Forecast
Issued by NWS

Home | Current Version | Previous Version | Text Only | Print | Product List | Glossary On
Versions: 1 2 3 4 5 6 7 8 9 10 11 12 13 14 15 16 17
878
FTUS42 KMLB 072327
TAFSFB
TAF
KSFB 072327Z 0800/0824 30009KT P6SM SKC
     FM080900 29006KT P6SM FEW250
     FM081600 26013G22KT P6SM FEW045 SCT250=

USA.gov is the U.S. government's official web portal to all federal, state and local government web resources and services.